createdAt,value
2023-09-12T00:00:53.359Z,14.00
2023-09-12T00:01:56.004Z,14.60
2023-09-12T00:02:58.547Z,14.70
2023-09-12T00:04:01.587Z,15.18
2023-09-12T00:05:05.198Z,16.27
2023-09-12T00:06:08.039Z,16.00
2023-09-12T00:07:10.587Z,15.00
2023-09-12T00:08:14.094Z,15.80
2023-09-12T00:09:16.837Z,17.60
2023-09-12T00:10:19.610Z,16.10
2023-09-12T00:11:23.772Z,17.90
2023-09-12T00:12:26.208Z,14.00
2023-09-12T00:13:29.229Z,18.40
2023-09-12T00:14:32.014Z,18.91
2023-09-12T00:15:34.360Z,19.20
2023-09-12T00:16:36.856Z,13.00
2023-09-12T00:17:39.149Z,18.00
2023-09-12T00:18:42.679Z,17.40
2023-09-12T00:19:45.325Z,18.40
2023-09-12T00:20:47.773Z,16.00
2023-09-12T00:21:50.629Z,16.10
2023-09-12T00:22:54.814Z,18.20
2023-09-12T00:23:57.233Z,15.40
2023-09-12T00:24:59.505Z,16.70
2023-09-12T00:26:02.089Z,17.70
2023-09-12T00:27:06.342Z,16.00
2023-09-12T00:28:08.632Z,16.60
2023-09-12T00:29:12.075Z,17.50
2023-09-12T00:30:16.058Z,16.10
2023-09-12T00:31:18.662Z,16.90
2023-09-12T00:32:21.005Z,16.30
2023-09-12T00:33:23.350Z,15.30
2023-09-12T00:34:27.682Z,16.90
2023-09-12T00:35:31.005Z,15.70
2023-09-12T00:36:33.654Z,14.20
2023-09-12T00:37:36.272Z,14.20
2023-09-12T00:38:38.695Z,17.00
2023-09-12T00:39:41.105Z,15.90
2023-09-12T00:40:44.278Z,16.00
2023-09-12T00:41:46.824Z,16.20
2023-09-12T00:42:49.418Z,14.80
2023-09-12T00:43:51.577Z,16.50
2023-09-12T00:44:54.053Z,18.20
2023-09-12T00:45:57.632Z,19.30
2023-09-12T00:47:02.576Z,18.60
2023-09-12T00:48:07.177Z,16.40
2023-09-12T00:49:10.885Z,19.80
2023-09-12T00:50:15.571Z,17.60
2023-09-12T00:51:21.523Z,16.70
2023-09-12T00:52:26.898Z,17.00
2023-09-12T00:53:31.350Z,15.10
2023-09-12T00:54:33.850Z,15.50
2023-09-12T00:55:39.602Z,1.10
2023-09-12T00:56:43.388Z,15.70
2023-09-12T00:57:46.976Z,16.00
2023-09-12T00:58:52.178Z,17.30
2023-09-12T00:59:56.197Z,17.40
2023-09-12T01:00:59.193Z,18.00
2023-09-12T01:02:03.367Z,14.27
2023-09-12T01:03:06.116Z,17.00
2023-09-12T01:04:20.444Z,18.73
2023-09-12T01:05:16.768Z,15.90
2023-09-12T01:06:22.013Z,17.60
2023-09-12T01:07:25.213Z,16.50
2023-09-12T01:08:28.076Z,18.20
2023-09-12T01:09:33.018Z,17.20
2023-09-12T01:10:35.675Z,16.00
2023-09-12T01:11:38.762Z,14.40
2023-09-12T01:12:41.442Z,16.80
2023-09-12T01:13:43.768Z,18.18
2023-09-12T01:14:46.822Z,18.00
2023-09-12T01:15:49.605Z,17.00
2023-09-12T01:16:52.306Z,18.27
2023-09-12T01:17:55.145Z,15.50
2023-09-12T01:18:57.785Z,19.27
2023-09-12T01:20:05.185Z,19.90
2023-09-12T01:21:26.229Z,19.90
2023-09-12T01:22:49.106Z,18.80
2023-09-12T01:24:16.454Z,19.10
2023-09-12T01:25:48.513Z,15.50
2023-09-12T01:27:00.775Z,16.50
2023-09-12T01:28:06.642Z,16.80
2023-09-12T01:29:11.655Z,15.90
2023-09-12T01:30:17.814Z,16.60
2023-09-12T01:31:20.661Z,14.80
2023-09-12T01:32:23.455Z,16.30
2023-09-12T01:33:26.611Z,16.91
2023-09-12T01:34:29.010Z,15.50
2023-09-12T01:35:32.397Z,17.00
2023-09-12T01:36:35.261Z,16.70
2023-09-12T01:37:38.139Z,16.70
2023-09-12T01:38:41.809Z,15.70
2023-09-12T01:39:44.472Z,15.90
2023-09-12T01:40:50.374Z,14.20
2023-09-12T01:41:55.283Z,16.10
2023-09-12T01:42:59.593Z,17.80
2023-09-12T01:44:03.750Z,17.50
2023-09-12T01:45:10.099Z,17.60
2023-09-12T01:46:15.035Z,18.70
2023-09-12T01:47:20.632Z,17.00
2023-09-12T01:48:27.271Z,18.10
2023-09-12T01:49:30.798Z,17.50
2023-09-12T01:50:36.075Z,17.90
2023-09-12T01:51:38.911Z,18.80
2023-09-12T01:52:42.174Z,14.90
2023-09-12T01:53:46.658Z,17.60
2023-09-12T01:54:51.852Z,16.80
2023-09-12T01:55:56.950Z,15.60
2023-09-12T01:56:59.666Z,17.30
2023-09-12T01:58:02.607Z,17.70
2023-09-12T01:59:06.233Z,16.91
2023-09-12T02:00:12.622Z,16.00
2023-09-12T02:01:16.325Z,15.60
2023-09-12T02:02:19.746Z,17.40
2023-09-12T02:03:22.419Z,15.00
2023-09-12T02:04:24.843Z,15.90
2023-09-12T02:05:27.289Z,16.10
2023-09-12T02:06:30.086Z,14.50
2023-09-12T02:07:36.088Z,16.55
2023-09-12T02:08:39.236Z,16.10
2023-09-12T02:09:42.505Z,11.10
2023-09-12T02:10:45.124Z,16.30
2023-09-12T02:11:48.794Z,17.40
2023-09-12T02:12:51.381Z,13.10
2023-09-12T02:13:53.691Z,12.10
2023-09-12T02:14:55.886Z,14.60
2023-09-12T02:16:04.541Z,13.00
2023-09-12T02:17:08.491Z,13.50
2023-09-12T02:18:13.898Z,14.10
2023-09-12T02:19:16.219Z,14.90
2023-09-12T02:20:20.044Z,14.20
2023-09-12T02:21:23.391Z,14.50
2023-09-12T02:22:25.612Z,13.10
2023-09-12T02:23:27.777Z,13.40
2023-09-12T02:24:30.624Z,13.20
2023-09-12T02:25:33.423Z,11.82
2023-09-12T02:26:36.779Z,12.27
2023-09-12T02:27:39.411Z,12.60
2023-09-12T02:28:42.809Z,12.30
2023-09-12T02:29:45.313Z,13.40
2023-09-12T02:30:47.803Z,13.20
2023-09-12T02:31:50.177Z,11.10
2023-09-12T02:32:52.380Z,13.50
2023-09-12T02:33:57.548Z,12.90
2023-09-12T02:35:00.484Z,12.30
2023-09-12T02:36:03.729Z,12.30
2023-09-12T02:37:06.307Z,13.80
2023-09-12T02:38:08.783Z,14.10
2023-09-12T02:39:11.218Z,13.80
2023-09-12T02:40:15.652Z,13.30
2023-09-12T02:41:18.307Z,15.10
2023-09-12T02:42:20.513Z,14.50
2023-09-12T02:43:23.612Z,11.90
2023-09-12T02:44:25.881Z,14.60
2023-09-12T02:45:28.232Z,14.40
2023-09-12T02:46:31.272Z,13.40
2023-09-12T02:47:34.372Z,13.10
2023-09-12T02:48:36.802Z,13.10
2023-09-12T02:49:38.965Z,12.40
2023-09-12T02:50:43.829Z,12.60
2023-09-12T02:51:47.011Z,14.30
2023-09-12T02:52:49.806Z,13.90
2023-09-12T02:53:52.560Z,13.30
2023-09-12T02:54:54.942Z,13.82
2023-09-12T02:55:57.465Z,13.10
2023-09-12T02:57:00.810Z,12.70
2023-09-12T02:58:03.282Z,10.60
2023-09-12T02:59:06.049Z,12.80
2023-09-12T03:00:09.703Z,11.50
2023-09-12T03:01:20.283Z,12.20
2023-09-12T03:02:23.056Z,13.10
2023-09-12T03:03:25.387Z,13.20
2023-09-12T03:04:29.679Z,12.60
2023-09-12T03:05:32.529Z,13.10
2023-09-12T03:06:36.169Z,13.10
2023-09-12T03:07:39.143Z,14.50
2023-09-12T03:08:42.587Z,13.10
2023-09-12T03:09:45.395Z,13.30
2023-09-12T03:10:51.504Z,14.27
2023-09-12T03:11:53.943Z,13.60
2023-09-12T03:12:56.680Z,13.90
2023-09-12T03:13:59.087Z,12.60
2023-09-12T03:15:01.490Z,10.50
2023-09-12T03:16:04.757Z,12.60
2023-09-12T03:17:07.524Z,14.60
2023-09-12T03:18:11.614Z,12.60
2023-09-12T03:19:14.018Z,10.60
2023-09-12T03:20:16.647Z,12.40
2023-09-12T03:21:19.281Z,13.10
2023-09-12T03:22:21.675Z,12.00
2023-09-12T03:23:24.060Z,14.00
2023-09-12T03:24:26.575Z,15.10
2023-09-12T03:25:28.883Z,13.30
2023-09-12T03:26:31.211Z,13.10
2023-09-12T03:27:33.641Z,11.70
2023-09-12T03:28:36.431Z,14.27
2023-09-12T03:29:39.456Z,14.20
2023-09-12T03:30:42.328Z,13.82
2023-09-12T03:31:46.183Z,12.55
2023-09-12T03:32:48.999Z,15.90
2023-09-12T03:33:52.678Z,13.82
2023-09-12T03:34:55.443Z,15.90
2023-09-12T03:35:57.912Z,20.10
2023-09-12T03:37:00.438Z,19.50
2023-09-12T03:38:03.202Z,16.50
2023-09-12T03:39:07.461Z,17.45
2023-09-12T03:40:11.974Z,18.60
2023-09-12T03:41:14.802Z,14.90
2023-09-12T03:42:17.280Z,13.70
2023-09-12T03:43:19.740Z,14.40
2023-09-12T03:44:22.011Z,13.20
2023-09-12T03:45:25.512Z,13.80
2023-09-12T03:46:28.254Z,14.09
2023-09-12T03:47:30.840Z,15.70
2023-09-12T03:48:35.638Z,14.91
2023-09-12T03:49:37.975Z,17.30
2023-09-12T03:50:40.443Z,15.70
2023-09-12T03:51:42.959Z,14.90
2023-09-12T03:52:45.678Z,14.30
2023-09-12T03:53:50.025Z,15.55
2023-09-12T03:54:52.459Z,16.20
2023-09-12T03:55:54.768Z,16.90
2023-09-12T03:56:57.581Z,15.70
2023-09-12T03:58:00.419Z,15.00
2023-09-12T03:59:03.949Z,15.90
2023-09-12T04:00:09.401Z,14.60
2023-09-12T04:01:22.022Z,15.60
2023-09-12T04:02:27.542Z,17.10
2023-09-12T04:03:29.852Z,17.80
2023-09-12T04:04:32.344Z,17.90
2023-09-12T04:05:35.641Z,16.70
2023-09-12T04:06:40.115Z,17.80
2023-09-12T04:07:43.651Z,18.00
2023-09-12T04:08:46.616Z,16.50
2023-09-12T04:09:49.005Z,16.91
2023-09-12T04:10:53.488Z,16.60
2023-09-12T04:11:57.837Z,17.50
2023-09-12T04:13:00.464Z,17.50
2023-09-12T04:14:03.743Z,17.30
2023-09-12T04:15:07.615Z,17.50
2023-09-12T04:16:11.449Z,18.00
2023-09-12T04:17:17.859Z,18.50
2023-09-12T04:18:20.417Z,18.20
2023-09-12T04:19:22.906Z,18.73
2023-09-12T04:20:26.522Z,19.60
2023-09-12T04:21:29.204Z,19.80
2023-09-12T04:22:32.899Z,10.50
2023-09-12T04:23:35.539Z,20.00
2023-09-12T04:24:38.703Z,17.20
2023-09-12T04:25:46.980Z,18.70
2023-09-12T04:26:51.704Z,16.40
2023-09-12T04:27:54.978Z,18.91
2023-09-12T04:28:57.306Z,18.55
2023-09-12T04:29:59.681Z,20.10
2023-09-12T04:31:05.734Z,18.30
2023-09-12T04:32:08.847Z,19.10
2023-09-12T04:33:11.210Z,18.20
2023-09-12T04:34:13.648Z,13.20
2023-09-12T04:35:16.827Z,19.40
2023-09-12T04:36:22.452Z,18.00
2023-09-12T04:37:24.770Z,19.70
2023-09-12T04:38:27.923Z,16.80
2023-09-12T04:39:30.532Z,19.60
2023-09-12T04:40:36.278Z,17.30
2023-09-12T04:41:39.011Z,18.40
2023-09-12T04:42:41.369Z,16.40
2023-09-12T04:43:45.303Z,15.70
2023-09-12T04:44:47.868Z,16.50
2023-09-12T04:45:51.342Z,17.60
2023-09-12T04:46:54.546Z,18.60
2023-09-12T04:47:56.770Z,18.70
2023-09-12T04:48:59.449Z,18.60
2023-09-12T04:50:02.550Z,16.50
2023-09-12T04:51:05.528Z,16.50
2023-09-12T04:52:08.075Z,16.00
2023-09-12T04:53:11.277Z,18.64
2023-09-12T04:54:13.529Z,17.10
2023-09-12T04:55:15.678Z,16.20
2023-09-12T04:56:18.245Z,16.50
2023-09-12T04:57:21.078Z,17.50
2023-09-12T04:58:23.604Z,16.64
2023-09-12T04:59:26.004Z,16.90
2023-09-12T05:00:28.479Z,17.60
2023-09-12T05:01:30.873Z,16.30
2023-09-12T05:02:33.493Z,16.30
2023-09-12T05:03:37.721Z,16.50
2023-09-12T05:04:40.775Z,16.50
2023-09-12T05:05:46.716Z,17.60
2023-09-12T05:06:49.451Z,17.40
2023-09-12T05:07:54.644Z,17.00
2023-09-12T05:08:57.382Z,15.20
2023-09-12T05:10:00.260Z,18.45
2023-09-12T05:11:03.474Z,14.45
2023-09-12T05:12:06.208Z,18.00
2023-09-12T05:13:09.100Z,15.91
2023-09-12T05:14:11.931Z,16.73
2023-09-12T05:15:14.803Z,17.82
2023-09-12T05:16:17.583Z,15.10
2023-09-12T05:17:20.446Z,17.80
2023-09-12T05:18:25.023Z,16.50
2023-09-12T05:19:27.378Z,16.40
2023-09-12T05:20:29.694Z,19.30
2023-09-12T05:21:32.384Z,18.10
2023-09-12T05:22:34.638Z,19.00
2023-09-12T05:23:37.296Z,16.70
2023-09-12T05:24:40.720Z,17.30
2023-09-12T05:25:43.935Z,18.00
2023-09-12T05:26:48.951Z,18.80
2023-09-12T05:27:51.470Z,18.50
2023-09-12T05:28:53.752Z,17.50
2023-09-12T05:29:56.474Z,17.80
2023-09-12T05:30:59.236Z,19.70
2023-09-12T05:32:02.585Z,19.10
2023-09-12T05:33:05.224Z,18.10
2023-09-12T05:34:08.067Z,19.20
2023-09-12T05:35:21.332Z,19.50
2023-09-12T05:36:17.055Z,16.90
2023-09-12T05:37:21.719Z,18.40
2023-09-12T05:38:24.195Z,17.20
2023-09-12T05:39:26.576Z,19.70
2023-09-12T05:40:30.332Z,17.30
2023-09-12T05:41:32.837Z,18.30
2023-09-12T05:42:35.247Z,17.60
2023-09-12T05:43:37.720Z,18.70
2023-09-12T05:44:40.648Z,17.40
2023-09-12T05:45:45.692Z,18.60
2023-09-12T05:46:50.345Z,19.30
2023-09-12T05:47:53.006Z,18.00
2023-09-12T05:48:55.712Z,18.10
2023-09-12T05:50:01.899Z,18.30
2023-09-12T05:51:05.530Z,16.50
2023-09-12T05:52:07.984Z,16.50
2023-09-12T05:53:10.884Z,17.50
2023-09-12T05:54:16.750Z,16.50
2023-09-12T05:55:19.247Z,16.60
2023-09-12T05:56:21.658Z,16.90
2023-09-12T05:57:24.547Z,18.00
2023-09-12T05:58:27.374Z,16.82
2023-09-12T05:59:32.102Z,14.90
2023-09-12T06:00:34.961Z,16.00
2023-09-12T06:01:37.191Z,16.10
2023-09-12T06:02:40.766Z,15.40
2023-09-12T06:03:43.372Z,15.60
2023-09-12T06:04:46.517Z,13.90
2023-09-12T06:05:49.541Z,15.70
2023-09-12T06:06:52.869Z,16.10
2023-09-12T06:07:56.043Z,15.10
2023-09-12T06:08:59.339Z,16.70
2023-09-12T06:10:03.282Z,14.70
2023-09-12T06:11:06.000Z,16.90
2023-09-12T06:12:08.480Z,13.10
2023-09-12T06:13:13.176Z,17.40
2023-09-12T06:14:15.518Z,15.70
2023-09-12T06:15:18.474Z,15.10
2023-09-12T06:16:21.113Z,14.50
2023-09-12T06:17:23.497Z,15.40
2023-09-12T06:18:28.178Z,15.10
2023-09-12T06:19:31.104Z,16.10
2023-09-12T06:20:34.526Z,16.09
2023-09-12T06:21:36.800Z,15.90
2023-09-12T06:22:39.240Z,16.30
2023-09-12T06:23:42.546Z,15.80
2023-09-12T06:24:45.495Z,15.50
2023-09-12T06:25:48.804Z,15.00
2023-09-12T06:26:51.352Z,15.70
2023-09-12T06:27:53.686Z,16.10
2023-09-12T06:28:57.175Z,16.30
2023-09-12T06:29:59.857Z,14.60
2023-09-12T06:31:02.460Z,16.40
2023-09-12T06:32:06.349Z,14.20
2023-09-12T06:33:08.769Z,13.80
2023-09-12T06:34:11.254Z,15.20
2023-09-12T06:35:13.460Z,14.50
2023-09-12T06:36:16.829Z,15.70
2023-09-12T06:37:19.207Z,16.60
2023-09-12T06:38:23.796Z,14.60
2023-09-12T06:39:26.703Z,15.10
2023-09-12T06:40:29.189Z,17.20
2023-09-12T06:41:31.468Z,15.60
2023-09-12T06:42:33.948Z,13.80
2023-09-12T06:43:37.050Z,15.20
2023-09-12T06:44:39.831Z,17.70
2023-09-12T06:45:45.969Z,13.36
2023-09-12T06:46:48.605Z,16.40
2023-09-12T06:47:51.164Z,15.00
2023-09-12T06:48:53.525Z,16.70
2023-09-12T06:49:56.977Z,13.40
2023-09-12T06:50:59.458Z,17.40
2023-09-12T06:52:02.231Z,15.40
2023-09-12T06:53:07.597Z,14.91
2023-09-12T06:54:09.890Z,16.10
2023-09-12T06:55:12.186Z,15.30
2023-09-12T06:56:15.417Z,15.10
2023-09-12T06:57:17.560Z,15.80
2023-09-12T06:58:19.924Z,15.30
2023-09-12T06:59:22.172Z,15.80
2023-09-12T07:00:25.673Z,15.90
2023-09-12T07:01:28.136Z,16.40
2023-09-12T07:02:30.984Z,16.50
2023-09-12T07:03:34.747Z,15.70
2023-09-12T07:04:37.411Z,15.90
2023-09-12T07:05:40.668Z,15.80
2023-09-12T07:06:43.621Z,15.70
2023-09-12T07:07:46.146Z,16.60
2023-09-12T07:08:48.754Z,15.00
2023-09-12T07:09:51.766Z,15.90
2023-09-12T07:12:07.596Z,12.90
2023-09-12T07:13:10.102Z,14.27
2023-09-12T07:14:13.152Z,13.60
2023-09-12T07:15:15.618Z,14.80
2023-09-12T07:16:19.138Z,12.50
2023-09-12T07:17:21.579Z,11.40
2023-09-12T07:18:24.380Z,11.90
2023-09-12T07:19:26.716Z,13.00
2023-09-12T07:20:28.860Z,11.50
2023-09-12T07:21:33.699Z,11.80
2023-09-12T07:22:36.207Z,11.40
2023-09-12T07:23:38.655Z,11.70
2023-09-12T07:24:41.184Z,12.40
2023-09-12T07:25:43.501Z,11.90
2023-09-12T07:26:47.494Z,13.00
2023-09-12T07:27:50.256Z,13.10
2023-09-12T07:28:52.978Z,11.00
2023-09-12T07:29:55.350Z,12.50
2023-09-12T07:30:58.729Z,13.10
2023-09-12T07:32:02.157Z,10.70
2023-09-12T07:33:05.227Z,9.00
2023-09-12T07:34:09.499Z,11.10
2023-09-12T07:35:12.524Z,10.20
2023-09-12T07:36:15.954Z,10.73
2023-09-12T07:37:19.456Z,10.50
2023-09-12T07:38:22.452Z,11.20
2023-09-12T07:39:25.159Z,4.60
2023-09-12T07:40:28.124Z,11.73
2023-09-12T07:41:33.291Z,10.36
2023-09-12T07:42:35.879Z,9.60
2023-09-12T07:43:38.586Z,11.10
2023-09-12T07:44:40.958Z,13.20
2023-09-12T07:45:43.360Z,11.30
2023-09-12T07:46:45.947Z,12.70
2023-09-12T07:47:49.407Z,14.30
2023-09-12T07:48:53.690Z,12.10
2023-09-12T07:49:57.221Z,13.80
2023-09-12T07:51:02.007Z,11.10
2023-09-12T07:52:05.075Z,12.10
2023-09-12T07:53:08.313Z,13.30
2023-09-12T07:54:10.888Z,13.90
2023-09-12T07:55:13.411Z,11.60
2023-09-12T07:56:15.900Z,12.90
2023-09-12T07:57:18.296Z,12.60
2023-09-12T07:58:21.389Z,8.80
2023-09-12T07:59:23.924Z,10.90
2023-09-12T08:00:26.412Z,8.00
2023-09-12T08:01:28.984Z,12.50
2023-09-12T08:02:31.508Z,11.90
2023-09-12T08:03:36.623Z,13.20
2023-09-12T08:04:39.289Z,11.40
2023-09-12T08:05:41.867Z,10.90
2023-09-12T08:06:56.990Z,12.50
2023-09-12T08:07:48.548Z,12.30
2023-09-12T08:08:50.953Z,12.00
2023-09-12T08:09:55.471Z,10.90
2023-09-12T08:10:58.456Z,9.20
2023-09-12T08:12:00.643Z,7.18
2023-09-12T08:13:03.970Z,8.10
2023-09-12T08:14:06.342Z,13.50
2023-09-12T08:15:10.826Z,13.20
2023-09-12T08:16:14.507Z,11.70
2023-09-12T08:17:17.667Z,11.60
2023-09-12T08:18:20.614Z,13.00
2023-09-12T08:19:23.936Z,10.20
2023-09-12T08:20:27.801Z,12.40
2023-09-12T08:21:31.467Z,10.60
2023-09-12T08:22:37.864Z,11.20
2023-09-12T08:23:40.368Z,8.30
2023-09-12T08:24:44.015Z,9.90
2023-09-12T08:25:46.932Z,9.27
2023-09-12T08:26:50.758Z,10.36
2023-09-12T08:27:53.378Z,7.80
2023-09-12T08:28:56.044Z,9.09
2023-09-12T08:29:58.538Z,9.20
2023-09-12T08:31:00.942Z,9.80
2023-09-12T08:32:03.921Z,8.50
2023-09-12T08:33:07.448Z,9.00
2023-09-12T08:34:09.910Z,8.30
2023-09-12T08:35:14.114Z,10.30
2023-09-12T08:36:17.200Z,9.40
2023-09-12T08:37:19.668Z,8.20
2023-09-12T08:38:21.843Z,10.00
2023-09-12T08:39:26.767Z,9.60
2023-09-12T08:40:30.985Z,9.80
2023-09-12T08:41:34.456Z,8.50
2023-09-12T08:42:45.049Z,8.70
2023-09-12T08:43:48.947Z,8.30
2023-09-12T08:44:51.247Z,6.90
2023-09-12T08:45:54.271Z,8.60
2023-09-12T08:46:58.491Z,7.70
2023-09-12T08:48:02.534Z,7.70
2023-09-12T08:49:07.552Z,8.00
2023-09-12T08:50:13.608Z,8.40
2023-09-12T08:51:15.970Z,8.20
2023-09-12T08:52:18.227Z,8.00
2023-09-12T08:53:22.398Z,8.00
2023-09-12T08:54:24.736Z,9.30
2023-09-12T08:55:27.234Z,8.40
2023-09-12T08:56:29.973Z,8.40
2023-09-12T08:57:34.110Z,7.80
2023-09-12T08:58:36.959Z,7.20
2023-09-12T08:59:42.742Z,7.27
2023-09-12T09:00:45.544Z,7.50
2023-09-12T09:01:50.595Z,7.91
2023-09-12T09:02:53.761Z,7.40
2023-09-12T09:03:57.511Z,8.00
2023-09-12T09:05:04.640Z,8.00
2023-09-12T09:06:10.204Z,7.50
2023-09-12T09:07:14.631Z,6.50
2023-09-12T09:08:19.345Z,7.40
2023-09-12T09:09:24.092Z,7.50
2023-09-12T09:10:38.336Z,8.30
2023-09-12T09:11:33.326Z,6.70
2023-09-12T09:12:36.933Z,7.00
2023-09-12T09:13:39.783Z,6.90
2023-09-12T09:14:42.882Z,6.36
2023-09-12T09:15:45.568Z,5.60
2023-09-12T09:16:47.951Z,5.73
2023-09-12T09:17:51.708Z,6.10
2023-09-12T09:19:03.920Z,7.10
2023-09-12T09:20:10.666Z,5.80
2023-09-12T09:21:19.163Z,6.70
2023-09-12T09:22:23.655Z,6.90
2023-09-12T09:23:26.515Z,6.80
2023-09-12T09:24:29.018Z,6.55
2023-09-12T09:25:31.649Z,7.10
2023-09-12T09:26:51.742Z,6.82
2023-09-12T09:27:54.962Z,6.80
2023-09-12T09:29:06.092Z,6.70
2023-09-12T09:30:09.734Z,5.80
2023-09-12T09:31:14.320Z,6.20
2023-09-12T09:32:22.049Z,7.10
2023-09-12T09:33:24.832Z,6.30
2023-09-12T09:34:33.367Z,5.73
2023-09-12T09:35:36.532Z,6.80
2023-09-12T09:36:45.380Z,5.70
2023-09-12T09:37:47.879Z,7.10
2023-09-12T09:38:50.460Z,6.40
2023-09-12T09:39:53.045Z,6.20
2023-09-12T09:40:55.973Z,6.50
2023-09-12T09:41:58.667Z,5.55
2023-09-12T09:43:02.038Z,7.73
2023-09-12T09:44:08.985Z,5.20
2023-09-12T09:45:11.930Z,3.10
2023-09-12T09:46:18.730Z,6.90
2023-09-12T09:47:21.988Z,5.40
2023-09-12T09:48:29.212Z,5.80
2023-09-12T09:49:37.463Z,6.20
2023-09-12T09:50:40.446Z,5.80
2023-09-12T09:51:45.912Z,6.45
2023-09-12T09:52:57.043Z,4.80
2023-09-12T09:54:01.834Z,4.80
2023-09-12T09:55:14.130Z,6.00
2023-09-12T09:56:17.759Z,5.90
2023-09-12T09:57:26.783Z,6.90
2023-09-12T09:58:31.211Z,5.80
2023-09-12T09:59:40.109Z,5.00
2023-09-12T10:00:47.755Z,4.80
2023-09-12T10:02:02.458Z,4.80
2023-09-12T10:03:22.300Z,4.80
2023-09-12T10:05:54.172Z,5.30
2023-09-12T10:07:15.694Z,4.90
2023-09-12T10:08:20.582Z,6.50
2023-09-12T10:09:25.658Z,2.80
2023-09-12T10:10:31.514Z,5.50
2023-09-12T10:11:36.257Z,2.50
2023-09-12T10:12:42.343Z,5.90
2023-09-12T10:15:01.702Z,5.60
2023-09-12T10:16:05.885Z,5.70
2023-09-12T10:17:11.109Z,5.10
2023-09-12T10:19:28.696Z,5.60
2023-09-12T10:20:47.902Z,5.40
2023-09-12T10:22:03.702Z,4.50
2023-09-12T10:23:11.916Z,5.50
2023-09-12T10:24:16.398Z,5.10
2023-09-12T10:25:19.048Z,6.50
2023-09-12T10:26:24.039Z,6.27
2023-09-12T10:27:27.014Z,6.50
2023-09-12T10:28:29.837Z,5.90
2023-09-12T10:29:32.556Z,5.60
2023-09-12T10:30:37.288Z,6.00
2023-09-12T10:31:40.594Z,6.80
2023-09-12T10:32:46.850Z,6.50
2023-09-12T10:33:51.714Z,5.10
2023-09-12T10:34:56.869Z,6.30
2023-09-12T10:36:01.442Z,5.10
2023-09-12T10:37:05.926Z,4.00
2023-09-12T10:38:09.879Z,6.30
2023-09-12T10:39:13.217Z,6.60
2023-09-12T10:40:18.129Z,4.00
2023-09-12T10:41:23.399Z,5.20
2023-09-12T10:42:30.462Z,5.70
2023-09-12T10:43:36.335Z,5.10
2023-09-12T10:44:39.304Z,3.80
2023-09-12T10:45:42.275Z,6.00
2023-09-12T10:46:48.943Z,5.50
2023-09-12T10:47:51.991Z,5.90
2023-09-12T10:48:55.221Z,6.50
2023-09-12T10:49:57.765Z,5.60
2023-09-12T10:51:02.526Z,5.18
2023-09-12T10:52:05.803Z,6.10
2023-09-12T10:53:12.703Z,5.00
2023-09-12T10:55:37.580Z,5.90
2023-09-12T10:56:41.227Z,5.30
2023-09-12T10:58:05.090Z,5.60
2023-09-12T10:59:10.154Z,5.50
2023-09-12T11:00:13.906Z,6.30
2023-09-12T11:01:27.989Z,4.90
2023-09-12T11:02:39.886Z,4.90
2023-09-12T11:03:42.902Z,5.60
2023-09-12T11:04:45.542Z,5.00
2023-09-12T11:05:54.465Z,5.20
2023-09-12T11:06:58.811Z,5.20
2023-09-12T11:08:04.271Z,4.40
2023-09-12T11:09:20.545Z,3.90
2023-09-12T11:10:23.564Z,4.70
2023-09-12T11:11:25.911Z,5.45
2023-09-12T11:12:37.769Z,3.90
2023-09-12T11:13:44.559Z,6.50
2023-09-12T11:15:08.984Z,5.70
2023-09-12T11:17:29.471Z,6.50
2023-09-12T11:18:31.833Z,5.30
2023-09-12T11:19:49.846Z,5.80
2023-09-12T11:21:00.844Z,5.40
2023-09-12T11:22:06.726Z,4.60
2023-09-12T11:23:12.506Z,5.50
2023-09-12T11:24:16.346Z,6.30
2023-09-12T11:25:23.552Z,4.50
2023-09-12T11:26:26.267Z,6.40
2023-09-12T11:27:34.691Z,5.91
2023-09-12T11:28:37.450Z,6.30
2023-09-12T11:29:41.318Z,4.36
2023-09-12T11:30:53.861Z,5.60
2023-09-12T11:32:00.085Z,6.10
2023-09-12T11:33:06.257Z,5.70
2023-09-12T11:34:11.214Z,4.90
2023-09-12T11:35:15.088Z,6.80
2023-09-12T11:36:20.148Z,5.10
2023-09-12T11:37:27.239Z,6.10
2023-09-12T11:38:32.385Z,6.00
2023-09-12T11:39:36.814Z,4.60
2023-09-12T11:40:42.966Z,4.30
2023-09-12T11:41:45.326Z,5.00
2023-09-12T11:42:50.461Z,6.00
2023-09-12T11:43:53.441Z,6.50
2023-09-12T11:44:56.536Z,5.73
2023-09-12T11:46:01.211Z,6.30
2023-09-12T11:47:06.512Z,5.40
2023-09-12T11:48:09.682Z,6.00
2023-09-12T11:49:12.703Z,4.50
2023-09-12T11:50:32.647Z,0.90
2023-09-12T11:51:36.055Z,5.20
2023-09-12T11:52:39.358Z,3.40
2023-09-12T11:53:42.265Z,5.30
2023-09-12T11:54:46.308Z,5.55
2023-09-12T11:55:54.578Z,5.40
2023-09-12T11:56:58.940Z,6.00
2023-09-12T11:58:02.485Z,5.80
2023-09-12T11:59:05.177Z,5.30
2023-09-12T12:00:11.321Z,6.60
2023-09-12T12:01:17.311Z,4.90
2023-09-12T12:02:20.052Z,5.80
2023-09-12T12:03:25.085Z,5.60
2023-09-12T12:04:29.443Z,4.30
2023-09-12T12:05:35.792Z,5.80
2023-09-12T12:06:40.562Z,6.50
2023-09-12T12:07:45.559Z,5.20
2023-09-12T12:08:48.231Z,5.40
2023-09-12T12:09:51.645Z,4.45
2023-09-12T12:10:55.296Z,7.00
2023-09-12T12:12:01.930Z,6.40
2023-09-12T12:13:04.986Z,5.70
2023-09-12T12:14:12.488Z,5.60
2023-09-12T12:15:15.099Z,5.70
2023-09-12T12:16:18.612Z,5.36
2023-09-12T12:17:22.290Z,4.50
2023-09-12T12:18:25.235Z,5.50
2023-09-12T12:19:28.274Z,5.90
2023-09-12T12:20:30.918Z,4.50
2023-09-12T12:21:34.275Z,6.10
2023-09-12T12:22:40.874Z,5.90
2023-09-12T12:23:44.984Z,5.70
2023-09-12T12:24:48.357Z,5.60
2023-09-12T12:25:50.757Z,6.50
2023-09-12T12:26:57.806Z,6.20
2023-09-12T12:28:00.974Z,4.80
2023-09-12T12:29:05.577Z,6.00
2023-09-12T12:30:14.218Z,6.50
2023-09-12T12:31:17.651Z,5.10
2023-09-12T12:32:21.583Z,4.90
2023-09-12T12:34:48.381Z,6.60
2023-09-12T12:35:43.763Z,4.60
2023-09-12T12:35:45.464Z,5.70
2023-09-12T12:36:53.297Z,5.40
2023-09-12T12:38:00.849Z,4.70
2023-09-12T12:38:59.546Z,6.20
2023-09-12T12:40:04.883Z,4.40
2023-09-12T12:41:07.393Z,5.60
2023-09-12T12:42:10.171Z,5.50
2023-09-12T12:43:20.696Z,6.27
2023-09-12T12:44:23.596Z,5.00
2023-09-12T12:45:27.020Z,6.40
2023-09-12T12:46:29.852Z,6.10
2023-09-12T12:47:34.597Z,6.55
2023-09-12T12:48:37.797Z,4.50
2023-09-12T12:49:40.763Z,6.00
2023-09-12T12:50:43.929Z,5.40
2023-09-12T12:51:47.916Z,6.50
2023-09-12T12:52:50.576Z,6.60
2023-09-12T12:53:55.187Z,6.10
2023-09-12T12:56:19.641Z,6.40
2023-09-12T12:57:22.174Z,5.20
2023-09-12T12:58:24.778Z,6.00
2023-09-12T12:59:27.151Z,6.00
2023-09-12T13:00:30.323Z,6.33
2023-09-12T13:01:35.452Z,6.80
2023-09-12T13:02:38.894Z,5.50
2023-09-12T13:03:43.094Z,5.70
2023-09-12T13:04:46.559Z,6.90
2023-09-12T13:05:49.095Z,5.70
2023-09-12T13:06:51.514Z,5.44
2023-09-12T13:07:54.451Z,5.44
2023-09-12T13:09:00.756Z,6.30
2023-09-12T13:10:05.157Z,6.70
2023-09-12T13:11:09.326Z,6.00
2023-09-12T13:12:11.836Z,5.80
2023-09-12T13:13:14.285Z,6.44
2023-09-12T13:14:17.659Z,5.67
2023-09-12T13:15:20.477Z,5.78
2023-09-12T13:16:23.596Z,5.80
2023-09-12T13:17:26.884Z,4.30
2023-09-12T13:18:29.173Z,5.90
2023-09-12T13:19:32.188Z,6.00
2023-09-12T13:20:35.133Z,7.10
2023-09-12T13:21:38.228Z,7.40
2023-09-12T13:22:40.919Z,6.80
2023-09-12T13:23:44.256Z,6.67
2023-09-12T13:24:49.270Z,6.00
2023-09-12T13:25:52.103Z,6.50
2023-09-12T13:26:54.588Z,7.20
2023-09-12T13:27:57.058Z,6.89
2023-09-12T13:28:59.632Z,6.56
2023-09-12T13:30:03.346Z,8.44
2023-09-12T13:31:05.876Z,6.82
2023-09-12T13:32:08.185Z,4.67
2023-09-12T13:33:12.091Z,5.67
2023-09-12T13:34:14.720Z,7.36
2023-09-12T13:35:17.563Z,7.00
2023-09-12T13:36:20.322Z,5.50
2023-09-12T13:37:22.930Z,7.78
2023-09-12T13:38:26.963Z,6.78
2023-09-12T13:39:30.284Z,5.70
2023-09-12T13:40:33.459Z,6.45
2023-09-12T13:41:35.743Z,6.00
2023-09-12T13:42:38.302Z,5.89
2023-09-12T13:43:41.450Z,7.33
2023-09-12T13:44:44.175Z,7.91
2023-09-12T13:45:47.298Z,7.90
2023-09-12T13:46:50.119Z,8.20
2023-09-12T13:47:54.096Z,6.60
2023-09-12T13:48:59.224Z,7.10
2023-09-12T13:50:02.105Z,6.60
2023-09-12T13:51:04.188Z,7.78
2023-09-12T13:52:07.177Z,6.78
2023-09-12T13:53:09.614Z,9.00
2023-09-12T13:54:15.205Z,10.78
2023-09-12T13:55:29.666Z,9.30
2023-09-12T13:56:22.711Z,14.30
2023-09-12T13:57:25.009Z,14.78
2023-09-12T13:58:34.256Z,13.44
2023-09-12T13:59:41.835Z,12.40
2023-09-12T14:00:37.568Z,13.90
2023-09-12T14:01:40.808Z,8.10
2023-09-12T14:02:46.221Z,8.30
2023-09-12T14:03:49.767Z,10.20
2023-09-12T14:05:04.040Z,10.00